DK-0017 weather

Ejstrupholm
Central Jutland, Denmark

Public forecast

Using degrees Celsius for public forecast. Weather courtesy of forecast.io.

Closest aviation weather report (METAR) to Ejstrupholm

Closest report is Billund Airport, 15.6 nm (28.8 km) SSW. Retrieved 2019/12/06 15:20 UTC (2 minutes ago):

EKBI 061520Z AUTO 21013G25KT 2400 -RA BR OVC004/// 08/08 Q0995

Closest aviation forecast (TAF) to Ejstrupholm

Closest forecast is Billund Airport, 15.6 nm (28.8 km) SSW. Retrieved 2019/12/06 12:00 UTC (3 hours ago):

TAF EKBI 061110Z 0612/0712 23015KT 2000 RADZ BR BKN003 TEMPO 0612/0621 23015G25KT 5000 -RADZ BKN008 BECMG 0621/0623 28012KT 9999 NSW SCT008 BKN015CB TEMPO 0623/0707 29015G25KT SHRA BKN008 TEMPO 0707/0712 29015G25KT SHRA